Time;durP1;ratioP1;P1;durP2;ratioP2;P2;SDS_P1;SDS_P2;PMS_P1;PMS_P2;Temp;Humidity;BMP_temperature;BMP_pressure;BME280_temperature;BME280_humidity;BME280_pressure;Samples;Min_cycle;Max_cycle;Signal;HPM_P1;HPM_P2
2022/12/29 00:00:06;;;;;;;1.67;1.27;;;10.80;98.20;;;;;;5040144;28;20467;-77
2022/12/29 00:02:33;;;;;;;1.60;1.10;;;10.80;98.20;;;;;;5027490;28;20474;-77
2022/12/29 00:05:00;;;;;;;1.60;1.20;;;10.80;98.20;;;;;;5034280;28;20470;-76
2022/12/29 00:07:27;;;;;;;1.60;1.10;;;10.70;98.20;;;;;;5020558;28;20490;-77
2022/12/29 00:09:54;;;;;;;1.60;1.20;;;10.80;98.20;;;;;;5035157;28;20636;-76
2022/12/29 00:12:21;;;;;;;1.60;1.20;;;10.80;98.20;;;;;;5032244;28;20901;-76
2022/12/29 00:17:33;;;;;;;1.60;1.20;;;10.80;98.20;;;;;;5016323;28;20481;-78
2022/12/29 00:36:43;;;;;;;1.60;1.20;;;10.80;98.20;;;;;;5016976;28;20490;-76
2022/12/29 00:45:02;;;;;;;1.60;1.20;;;10.90;98.20;;;;;;5029112;28;20918;-76
2022/12/29 00:47:30;;;;;;;1.70;1.40;;;11.00;98.20;;;;;;5025136;28;20482;-76
2022/12/29 00:49:55;;;;;;;1.60;1.20;;;11.00;98.20;;;;;;5036187;28;20470;-76
2022/12/29 00:52:22;;;;;;;1.60;1.10;;;11.00;98.20;;;;;;5030854;28;21038;-76
2022/12/29 00:54:49;;;;;;;1.60;1.10;;;11.10;98.20;;;;;;5034684;28;20466;-76
2022/12/29 00:57:16;;;;;;;1.60;1.10;;;11.10;98.20;;;;;;5013100;28;20494;-76
2022/12/29 00:59:45;;;;;;;1.60;1.10;;;11.10;98.20;;;;;;5027753;28;20459;-76
2022/12/29 01:02:11;;;;;;;1.60;1.10;;;11.20;98.20;;;;;;5029283;28;20488;-76
2022/12/29 01:04:39;;;;;;;1.60;1.20;;;11.20;98.20;;;;;;5035542;28;20836;-76
2022/12/29 01:07:06;;;;;;;1.60;1.10;;;11.30;98.20;;;;;;5029362;28;20491;-76
2022/12/29 01:12:40;;;;;;;1.60;1.10;;;11.30;98.20;;;;;;5017442;28;20485;-76
2022/12/29 01:15:07;;;;;;;1.60;1.10;;;11.30;98.20;;;;;;5033475;28;20975;-76
2022/12/29 01:17:33;;;;;;;1.60;1.30;;;11.30;98.20;;;;;;5012924;28;21024;-76
2022/12/29 01:20:03;;;;;;;1.60;1.10;;;11.30;98.20;;;;;;5036577;28;20934;-76
2022/12/29 01:22:30;;;;;;;1.60;1.10;;;11.30;98.20;;;;;;5026720;28;20489;-76
2022/12/29 01:24:57;;;;;;;1.60;1.20;;;11.30;98.20;;;;;;5039987;28;20532;-76
2022/12/29 01:27:24;;;;;;;1.60;1.10;;;11.30;98.20;;;;;;5028006;28;20490;-76
2022/12/29 01:29:51;;;;;;;1.60;1.10;;;11.30;98.20;;;;;;5039220;28;20964;-76
2022/12/29 01:32:18;;;;;;;1.60;1.10;;;11.30;98.20;;;;;;5029019;28;20794;-76
2022/12/29 01:34:45;;;;;;;1.60;1.10;;;11.30;98.20;;;;;;5034438;28;20466;-76
2022/12/29 01:37:13;;;;;;;1.60;1.20;;;11.30;98.20;;;;;;5011852;28;20487;-76
2022/12/29 01:39:39;;;;;;;1.60;1.10;;;11.30;98.20;;;;;;5040682;28;20849;-76
2022/12/29 01:42:10;;;;;;;1.60;1.20;;;11.40;98.20;;;;;;5026317;28;20479;-76
2022/12/29 01:44:53;;;;;;;1.60;1.20;;;11.40;98.20;;;;;;5023974;28;20462;-76
2022/12/29 01:47:27;;;;;;;1.60;1.10;;;11.40;98.20;;;;;;5025351;28;20482;-76
2022/12/29 01:49:56;;;;;;;1.60;1.10;;;11.50;98.20;;;;;;5034463;28;20662;-76
2022/12/29 01:52:26;;;;;;;2.03;1.83;;;11.50;98.20;;;;;;5024434;28;20482;-76
2022/12/29 01:54:56;;;;;;;1.60;1.10;;;11.60;98.20;;;;;;5035347;28;20788;-76
2022/12/29 01:57:28;;;;;;;1.60;1.20;;;11.60;98.20;;;;;;5011327;28;20502;-76
2022/12/29 02:00:00;;;;;;;1.60;1.10;;;11.60;98.20;;;;;;5027723;28;20459;-76
2022/12/29 02:02:27;;;;;;;1.60;1.17;;;11.70;98.20;;;;;;5030344;28;20485;-76
2022/12/29 02:04:57;;;;;;;1.60;1.10;;;11.70;98.20;;;;;;5032965;28;20573;-76
2022/12/29 02:07:28;;;;;;;1.60;1.10;;;11.70;98.20;;;;;;5009284;28;20491;-76
2022/12/29 02:09:56;;;;;;;1.60;1.10;;;11.80;98.20;;;;;;5032774;28;20979;-76
2022/12/29 02:12:24;;;;;;;1.60;1.20;;;11.80;98.20;;;;;;5017485;28;20526;-76
2022/12/29 02:14:56;;;;;;;1.60;1.20;;;11.80;98.20;;;;;;5035044;28;20458;-76
2022/12/29 02:17:32;;;;;;;1.60;1.10;;;11.80;98.20;;;;;;5012839;28;20898;-76
2022/12/29 02:20:33;;;;;;;1.60;1.20;;;11.80;98.20;;;;;;5029998;28;20810;-76
2022/12/29 02:23:18;;;;;;;1.60;1.10;;;11.80;98.20;;;;;;5013798;28;20475;-76
2022/12/29 02:26:11;;;;;;;1.60;1.10;;;11.80;98.20;;;;;;5030867;28;20458;-76
2022/12/29 02:29:07;;;;;;;1.60;1.20;;;11.80;98.20;;;;;;5002537;28;20481;-76
2022/12/29 02:31:39;;;;;;;1.60;1.10;;;11.80;98.20;;;;;;5021700;28;20501;-76
2022/12/29 02:34:17;;;;;;;1.60;1.20;;;11.90;98.20;;;;;;5037751;28;20749;-76
2022/12/29 02:36:49;;;;;;;1.60;1.10;;;11.90;98.20;;;;;;5002378;28;20473;-76
2022/12/29 02:39:23;;;;;;;1.60;1.10;;;11.90;98.20;;;;;;5031728;28;20462;-76
2022/12/29 02:42:01;;;;;;;1.60;1.10;;;12.00;98.20;;;;;;5019582;28;20544;-76
2022/12/29 02:44:36;;;;;;;1.60;1.10;;;12.00;98.20;;;;;;5041377;28;20466;-76
2022/12/29 02:47:12;;;;;;;1.60;1.10;;;12.00;98.20;;;;;;5021647;28;20987;-76
2022/12/29 02:49:46;;;;;;;1.63;1.20;;;12.10;98.20;;;;;;5034867;28;20458;-76
2022/12/29 02:52:17;;;;;;;1.60;1.10;;;12.10;98.20;;;;;;5016239;28;20491;-76
2022/12/29 02:54:43;;;;;;;1.60;1.10;;;12.10;98.20;;;;;;5029430;28;20474;-76
2022/12/29 02:57:15;;;;;;;1.60;1.20;;;12.10;98.20;;;;;;5011109;28;20549;-76
2022/12/29 02:59:44;;;;;;;1.60;1.10;;;12.10;98.20;;;;;;5025174;28;20466;-76
2022/12/29 03:02:46;;;;;;;1.60;1.20;;;12.20;98.20;;;;;;5011851;28;20490;-76
2022/12/29 03:05:23;;;;;;;1.60;1.10;;;12.20;98.20;;;;;;5036681;28;20532;-76
2022/12/29 03:07:58;;;;;;;1.60;1.10;;;12.20;98.20;;;;;;5007460;28;20494;-76
2022/12/29 03:10:37;;;;;;;1.60;1.10;;;12.20;98.20;;;;;;5036054;28;20457;-76
2022/12/29 03:16:05;;;;;;;1.60;1.10;;;12.20;98.20;;;;;;5018132;28;20462;-76
2022/12/29 03:18:41;;;;;;;1.60;1.13;;;12.30;98.20;;;;;;5023534;28;20507;-75
2022/12/29 03:21:14;;;;;;;1.60;1.13;;;12.20;98.20;;;;;;5022838;28;20472;-76
2022/12/29 03:23:47;;;;;;;1.60;1.10;;;12.30;98.20;;;;;;5039345;28;20563;-76
2022/12/29 03:26:16;;;;;;;1.60;1.10;;;12.20;98.20;;;;;;5018979;28;20488;-76
2022/12/29 03:28:47;;;;;;;1.60;1.10;;;12.20;98.20;;;;;;5027392;28;20887;-75
2022/12/29 03:31:16;;;;;;;1.60;1.20;;;12.20;98.20;;;;;;5021228;28;20479;-76
2022/12/29 03:33:45;;;;;;;1.60;1.10;;;12.20;98.20;;;;;;5027863;28;20462;-76
2022/12/29 03:36:23;;;;;;;1.60;1.10;;;12.20;98.20;;;;;;5016425;28;21008;-76
2022/12/29 03:38:58;;;;;;;1.60;1.10;;;12.20;98.20;;;;;;5026312;28;20857;-76
2022/12/29 03:41:29;;;;;;;1.60;1.10;;;12.10;98.20;;;;;;5018404;28;20479;-76
2022/12/29 03:43:56;;;;;;;1.60;1.20;;;12.10;98.20;;;;;;5033461;28;20463;-76
2022/12/29 03:46:23;;;;;;;1.60;1.10;;;12.10;98.20;;;;;;5015517;28;20486;-76
2022/12/29 03:48:51;;;;;;;1.60;1.10;;;12.20;98.20;;;;;;5027928;28;20486;-76
2022/12/29 03:51:17;;;;;;;1.60;1.13;;;12.20;98.20;;;;;;5020254;28;20479;-76
2022/12/29 03:53:44;;;;;;;1.60;1.10;;;12.20;98.20;;;;;;5026372;28;20790;-76
2022/12/29 03:56:11;;;;;;;1.60;1.10;;;12.20;98.20;;;;;;5012963;28;20872;-76
2022/12/29 03:58:38;;;;;;;1.60;1.10;;;12.20;98.20;;;;;;5018227;28;20481;-75
2022/12/29 04:01:04;;;;;;;1.60;1.10;;;12.10;98.20;;;;;;5024952;28;20560;-75
2022/12/29 04:03:31;;;;;;;1.60;1.10;;;12.10;98.20;;;;;;5023616;28;20477;-75
2022/12/29 04:05:59;;;;;;;1.60;1.10;;;12.10;98.20;;;;;;5028597;28;20455;-75
2022/12/29 04:08:26;;;;;;;1.60;1.10;;;12.10;98.20;;;;;;5023304;28;20474;-75
2022/12/29 04:10:53;;;;;;;1.60;1.10;;;12.10;98.20;;;;;;5025511;28;20463;-75
2022/12/29 04:13:19;;;;;;;1.60;1.20;;;12.00;98.20;;;;;;5017244;28;20477;-75
2022/12/29 04:15:46;;;;;;;1.60;1.10;;;12.00;98.20;;;;;;5042738;28;20565;-75
2022/12/29 04:18:13;;;;;;;1.60;1.00;;;12.00;98.20;;;;;;5009930;28;20468;-75
2022/12/29 04:23:26;;;;;;;1.60;1.20;;;12.00;98.20;;;;;;5007660;28;20493;-75
2022/12/29 04:25:53;;;;;;;1.60;1.10;;;12.00;98.20;;;;;;5028066;28;20952;-75
2022/12/29 04:28:20;;;;;;;1.60;1.10;;;12.00;98.20;;;;;;5017727;28;20589;-75
2022/12/29 04:30:48;;;;;;;1.60;1.10;;;12.00;98.20;;;;;;5039597;28;20469;-75
2022/12/29 04:33:15;;;;;;;1.60;1.10;;;12.00;98.20;;;;;;5011509;28;20470;-75
2022/12/29 04:35:42;;;;;;;1.60;1.10;;;12.10;98.20;;;;;;5035073;28;20461;-75
2022/12/29 04:38:09;;;;;;;1.60;1.10;;;12.10;98.20;;;;;;5026786;28;20837;-74
2022/12/29 04:40:39;;;;;;;1.60;1.10;;;12.20;98.20;;;;;;5041626;28;20454;-75
2022/12/29 04:43:05;;;;;;;1.60;1.00;;;12.20;98.20;;;;;;5017717;28;20485;-75
2022/12/29 04:45:32;;;;;;;1.60;1.10;;;12.20;98.20;;;;;;5038748;28;20837;-75
2022/12/29 04:47:59;;;;;;;1.60;1.10;;;12.30;98.20;;;;;;5006617;28;20674;-75
2022/12/29 04:50:26;;;;;;;1.60;1.13;;;12.30;98.20;;;;;;5036998;28;20469;-75
2022/12/29 04:52:52;;;;;;;1.60;1.10;;;12.30;98.20;;;;;;5028543;28;20478;-75
2022/12/29 04:55:19;;;;;;;1.60;1.10;;;12.40;98.20;;;;;;5040275;28;20462;-75
2022/12/29 04:57:47;;;;;;;1.87;1.67;;;12.40;98.20;;;;;;5006476;28;20498;-75
2022/12/29 05:00:15;;;;;;;1.60;1.10;;;12.40;98.20;;;;;;5041648;28;20463;-75
2022/12/29 05:02:42;;;;;;;1.60;1.10;;;12.40;98.20;;;;;;5008005;28;20825;-74
2022/12/29 05:05:09;;;;;;;1.60;1.10;;;12.50;98.20;;;;;;5041728;28;20464;-75
2022/12/29 05:07:36;;;;;;;1.60;1.10;;;12.50;98.20;;;;;;5027395;28;20490;-75
2022/12/29 05:10:03;;;;;;;1.60;1.03;;;12.40;98.20;;;;;;5040694;28;21023;-75
2022/12/29 05:12:31;;;;;;;1.60;1.10;;;12.40;98.20;;;;;;5011065;28;20483;-75
2022/12/29 05:15:00;;;;;;;1.60;1.10;;;12.40;98.20;;;;;;5039419;28;20550;-75
2022/12/29 05:17:27;;;;;;;1.60;1.00;;;12.50;98.20;;;;;;5008131;28;20480;-75
2022/12/29 05:19:54;;;;;;;1.60;1.03;;;12.50;98.20;;;;;;5036775;28;20479;-75
2022/12/29 05:22:20;;;;;;;1.60;1.10;;;12.50;98.20;;;;;;5030856;28;20479;-75
2022/12/29 05:24:48;;;;;;;1.60;1.10;;;12.50;98.20;;;;;;5035703;28;20463;-75
2022/12/29 05:27:16;;;;;;;1.60;1.10;;;12.50;98.20;;;;;;5031651;28;20537;-74
2022/12/29 05:29:44;;;;;;;1.60;1.10;;;12.50;98.20;;;;;;5036692;28;20475;-75
2022/12/29 05:32:12;;;;;;;1.60;1.00;;;12.50;98.20;;;;;;5011733;28;20480;-74
2022/12/29 05:34:39;;;;;;;1.60;1.10;;;12.50;98.20;;;;;;5034991;28;20458;-75
2022/12/29 05:37:06;;;;;;;1.60;1.10;;;12.50;98.20;;;;;;5014410;28;20493;-74
2022/12/29 05:39:33;;;;;;;1.60;1.00;;;12.50;98.20;;;;;;5033783;28;20499;-74
2022/12/29 05:42:00;;;;;;;1.60;1.03;;;12.50;98.20;;;;;;5022313;28;20525;-75
2022/12/29 05:44:26;;;;;;;1.60;1.00;;;12.50;98.20;;;;;;5035417;28;20837;-74
2022/12/29 05:46:53;;;;;;;1.60;1.10;;;12.40;98.20;;;;;;5016516;28;20848;-75
2022/12/29 05:49:21;;;;;;;1.60;1.10;;;12.40;98.20;;;;;;5029748;28;20554;-75
2022/12/29 05:51:48;;;;;;;1.60;1.10;;;12.40;98.20;;;;;;5024728;28;21021;-74
2022/12/29 05:54:15;;;;;;;1.60;1.10;;;12.30;98.20;;;;;;5039694;28;20465;-74
2022/12/29 05:56:42;;;;;;;1.60;1.10;;;12.30;98.20;;;;;;5017541;28;20572;-75
2022/12/29 05:59:09;;;;;;;1.60;1.10;;;12.30;98.20;;;;;;5029400;28;20457;-75
2022/12/29 06:01:36;;;;;;;1.60;1.00;;;12.30;98.20;;;;;;5026544;28;21029;-74
2022/12/29 06:04:02;;;;;;;1.60;1.10;;;12.30;98.20;;;;;;5037326;28;20490;-74
2022/12/29 06:06:30;;;;;;;1.60;1.10;;;12.30;98.20;;;;;;5029351;28;20852;-75
2022/12/29 06:08:57;;;;;;;1.60;1.10;;;12.30;98.20;;;;;;5037522;28;20860;-75
2022/12/29 06:11:24;;;;;;;1.60;1.10;;;12.30;98.20;;;;;;5024621;28;20482;-75
2022/12/29 06:13:51;;;;;;;1.60;1.10;;;12.30;98.20;;;;;;5042183;28;20947;-75
2022/12/29 06:16:18;;;;;;;1.60;1.07;;;12.30;98.20;;;;;;5024537;28;20503;-75
2022/12/29 06:18:44;;;;;;;1.60;1.00;;;12.30;98.20;;;;;;5026883;28;20481;-75
2022/12/29 06:21:11;;;;;;;1.60;1.10;;;12.20;98.20;;;;;;5030638;28;20504;-75
2022/12/29 06:23:39;;;;;;;1.60;1.10;;;12.20;98.20;;;;;;5041319;28;20485;-75
2022/12/29 06:26:06;;;;;;;1.60;1.10;;;12.20;98.20;;;;;;5027790;28;20567;-75
2022/12/29 06:28:33;;;;;;;1.60;1.10;;;12.20;98.20;;;;;;5031033;28;20975;-75
2022/12/29 06:31:01;;;;;;;1.60;1.10;;;12.20;98.20;;;;;;5030968;28;20982;-75
2022/12/29 06:33:28;;;;;;;1.60;1.10;;;12.10;98.20;;;;;;5025731;28;20545;-74
2022/12/29 06:36:16;;;;;;;1.60;1.10;;;12.10;98.20;;;;;;5030820;28;20758;-74
2022/12/29 06:38:44;;;;;;;1.60;1.10;;;12.10;98.20;;;;;;5025717;28;20482;-75
2022/12/29 06:41:11;;;;;;;1.60;1.10;;;12.00;98.20;;;;;;5026374;28;20483;-74
2022/12/29 06:43:38;;;;;;;1.60;1.10;;;12.00;98.20;;;;;;5037998;28;20486;-75
2022/12/29 06:46:05;;;;;;;1.60;1.10;;;12.00;98.20;;;;;;5027959;28;20471;-74
2022/12/29 06:48:32;;;;;;;1.60;1.10;;;12.00;98.20;;;;;;5022092;28;20486;-74
2022/12/29 06:50:58;;;;;;;1.60;1.07;;;12.00;98.20;;;;;;5025179;28;20966;-74
2022/12/29 06:53:25;;;;;;;1.60;1.10;;;12.00;98.20;;;;;;5026811;28;20458;-74
2022/12/29 06:55:54;;;;;;;1.60;1.10;;;12.00;98.20;;;;;;5028035;28;20467;-75
2022/12/29 06:58:20;;;;;;;1.60;1.10;;;12.00;98.20;;;;;;5016776;28;20528;-75
2022/12/29 07:00:48;;;;;;;1.60;1.23;;;12.00;98.20;;;;;;5041525;28;20473;-74
2022/12/29 07:03:15;;;;;;;1.60;1.10;;;12.00;98.20;;;;;;5011892;28;21015;-74
2022/12/29 07:05:42;;;;;;;1.60;1.10;;;12.00;98.20;;;;;;5039540;28;20458;-74
2022/12/29 07:08:08;;;;;;;1.60;1.10;;;12.00;98.20;;;;;;5010694;28;20482;-74
2022/12/29 07:10:35;;;;;;;1.60;1.13;;;12.00;98.20;;;;;;5037957;28;20477;-74
2022/12/29 07:13:03;;;;;;;1.60;1.20;;;12.00;98.20;;;;;;5007375;28;21023;-74
2022/12/29 07:15:30;;;;;;;1.60;1.20;;;12.00;98.20;;;;;;5041172;28;20469;-74
2022/12/29 07:17:57;;;;;;;1.83;1.63;;;12.00;98.20;;;;;;5031288;28;20696;-74
2022/12/29 07:20:24;;;;;;;1.63;1.30;;;12.00;98.20;;;;;;5039625;28;20466;-74
2022/12/29 07:22:50;;;;;;;1.60;1.10;;;12.00;98.20;;;;;;5015803;28;20475;-73
2022/12/29 07:25:17;;;;;;;1.60;1.00;;;12.00;98.20;;;;;;5044968;28;20772;-73
2022/12/29 07:27:44;;;;;;;1.60;1.10;;;12.00;98.20;;;;;;5017737;28;20571;-73
2022/12/29 07:30:14;;;;;;;1.60;1.10;;;12.00;98.20;;;;;;5041591;28;20458;-74
2022/12/29 07:32:41;;;;;;;1.60;1.10;;;12.00;98.20;;;;;;5015370;28;20534;-72
2022/12/29 07:35:08;;;;;;;1.60;1.10;;;11.90;98.20;;;;;;5032922;28;20476;-72
2022/12/29 07:37:35;;;;;;;1.60;1.10;;;11.90;98.20;;;;;;5006942;28;20526;-72
2022/12/29 07:40:03;;;;;;;1.60;1.00;;;11.90;98.20;;;;;;5033734;28;20463;-72
2022/12/29 07:42:30;;;;;;;1.60;1.10;;;11.80;98.20;;;;;;5006559;28;20855;-73
2022/12/29 07:44:56;;;;;;;1.60;1.00;;;11.90;98.20;;;;;;5038757;28;20472;-73
2022/12/29 07:47:25;;;;;;;1.60;1.20;;;11.80;98.20;;;;;;5005533;28;20500;-73
2022/12/29 07:49:51;;;;;;;1.60;1.10;;;11.80;98.20;;;;;;5032706;28;20475;-73
2022/12/29 07:52:18;;;;;;;1.60;1.10;;;11.80;98.20;;;;;;5026545;28;21086;-72
2022/12/29 07:54:45;;;;;;;1.60;1.10;;;11.80;98.20;;;;;;5038410;28;20832;-73
2022/12/29 07:57:12;;;;;;;1.60;1.10;;;11.80;98.20;;;;;;5011646;28;20867;-73
2022/12/29 07:59:39;;;;;;;1.60;1.07;;;11.80;98.20;;;;;;5031197;28;20462;-73
2022/12/29 08:02:05;;;;;;;1.60;1.10;;;11.80;98.20;;;;;;5009622;28;20486;-74
2022/12/29 08:04:34;;;;;;;1.60;1.10;;;11.70;98.20;;;;;;5032097;28;20573;-73
2022/12/29 08:07:01;;;;;;;1.60;1.10;;;11.70;98.20;;;;;;5014082;28;21019;-73
2022/12/29 08:09:28;;;;;;;1.60;1.10;;;11.70;98.20;;;;;;5028801;28;20463;-73
2022/12/29 08:11:55;;;;;;;1.60;1.10;;;11.70;98.20;;;;;;5027942;28;20759;-73
2022/12/29 08:14:22;;;;;;;1.60;1.10;;;11.70;98.20;;;;;;5039343;28;20474;-73
2022/12/29 08:16:49;;;;;;;1.60;1.10;;;11.70;98.20;;;;;;5012210;28;20494;-73
2022/12/29 08:19:16;;;;;;;1.60;1.10;;;11.70;98.20;;;;;;5026378;28;20557;-73
2022/12/29 08:21:44;;;;;;;1.60;1.10;;;11.70;98.20;;;;;;5029247;28;20994;-71
2022/12/29 08:24:11;;;;;;;1.60;1.03;;;11.70;98.20;;;;;;5040934;28;20484;-73
2022/12/29 08:26:38;;;;;;;1.60;1.10;;;11.70;98.20;;;;;;5020898;28;20483;-73
2022/12/29 08:29:05;;;;;;;1.60;1.10;;;11.70;98.20;;;;;;5024205;28;20502;-72
2022/12/29 08:31:32;;;;;;;1.60;1.10;;;11.70;98.20;;;;;;5020821;28;20484;-72
2022/12/29 08:33:59;;;;;;;1.60;1.00;;;11.70;98.20;;;;;;5023021;28;20582;-72
2022/12/29 08:36:26;;;;;;;1.60;1.20;;;11.70;98.20;;;;;;5026370;28;20486;-72
2022/12/29 08:38:55;;;;;;;1.60;1.00;;;11.70;98.20;;;;;;5037632;28;20482;-73
2022/12/29 08:41:22;;;;;;;1.60;1.10;;;11.70;98.20;;;;;;5026983;28;20481;-73
2022/12/29 08:43:50;;;;;;;1.60;1.10;;;11.70;98.20;;;;;;5036684;28;21081;-73
2022/12/29 08:46:17;;;;;;;1.60;1.10;;;11.80;98.20;;;;;;5022445;28;20999;-73
2022/12/29 08:48:45;;;;;;;1.60;1.10;;;11.80;98.20;;;;;;5021528;28;20577;-73
2022/12/29 08:51:12;;;;;;;1.60;1.00;;;11.80;98.20;;;;;;5022803;28;20944;-72
2022/12/29 08:53:39;;;;;;;1.60;1.10;;;11.80;98.20;;;;;;5020116;28;20459;-72
2022/12/29 08:56:09;;;;;;;1.60;1.10;;;11.80;98.20;;;;;;5021493;28;20905;-73
2022/12/29 08:58:37;;;;;;;1.60;1.10;;;11.80;98.20;;;;;;5023239;28;20496;-73
2022/12/29 09:01:04;;;;;;;1.60;1.10;;;11.90;98.20;;;;;;5023639;28;22079;-73
2022/12/29 09:03:31;;;;;;;1.60;1.17;;;11.90;98.20;;;;;;5015304;28;20494;-74
2022/12/29 09:05:58;;;;;;;1.60;1.10;;;11.80;98.20;;;;;;5024261;28;20459;-74
2022/12/29 09:08:25;;;;;;;1.60;1.10;;;11.80;98.20;;;;;;5015350;28;20481;-73
2022/12/29 09:10:52;;;;;;;1.60;1.10;;;11.80;98.20;;;;;;5023296;28;20494;-74
2022/12/29 09:13:21;;;;;;;1.60;1.10;;;11.70;98.20;;;;;;5015551;28;20462;-74
2022/12/29 09:15:48;;;;;;;1.60;1.10;;;11.70;98.20;;;;;;5029544;28;20469;-74
2022/12/29 09:18:15;;;;;;;1.60;1.10;;;11.70;98.20;;;;;;5011387;28;20914;-74
2022/12/29 09:21:05;;;;;;;1.60;1.20;;;11.60;98.20;;;;;;5038730;28;20545;-73
2022/12/29 09:23:33;;;;;;;1.60;1.10;;;11.60;98.20;;;;;;5001632;28;20917;-74
2022/12/29 09:26:00;;;;;;;1.60;1.10;;;11.60;98.20;;;;;;5025477;28;20466;-73
2022/12/29 09:28:29;;;;;;;1.60;1.10;;;11.70;98.20;;;;;;5014413;28;20489;-74
2022/12/29 09:30:56;;;;;;;1.60;1.10;;;11.80;98.20;;;;;;5022964;28;20553;-72
2022/12/29 09:33:27;;;;;;;1.60;1.10;;;11.90;98.20;;;;;;5016859;28;20466;-73
2022/12/29 09:35:55;;;;;;;1.60;1.00;;;11.90;98.20;;;;;;5027525;28;20463;-73
2022/12/29 09:38:22;;;;;;;1.60;1.10;;;11.90;98.20;;;;;;5035446;28;20482;-73
2022/12/29 09:40:52;;;;;;;1.60;1.10;;;12.00;98.20;;;;;;5024245;28;20861;-73
2022/12/29 09:43:33;;;;;;;1.60;1.10;;;12.00;98.20;;;;;;5029728;28;20844;-74
2022/12/29 09:46:14;;;;;;;1.60;1.10;;;12.00;98.20;;;;;;5020834;28;20462;-74
2022/12/29 09:48:45;;;;;;;1.60;1.20;;;12.00;98.20;;;;;;5020497;28;20512;-74
2022/12/29 09:51:16;;;;;;;1.60;1.10;;;12.00;98.20;;;;;;5020194;28;20497;-73
2022/12/29 09:53:48;;;;;;;1.60;1.00;;;12.00;98.20;;;;;;5033517;28;21201;-72
2022/12/29 09:56:19;;;;;;;1.60;1.30;;;12.10;98.20;;;;;;5025906;28;21330;-73
2022/12/29 09:58:54;;;;;;;1.60;1.10;;;12.10;98.20;;;;;;5037330;28;20497;-73
2022/12/29 10:01:31;;;;;;;1.60;1.10;;;12.10;98.20;;;;;;5019355;28;20507;-73
2022/12/29 10:04:02;;;;;;;1.53;1.10;;;12.10;98.20;;;;;;5020895;28;20490;-73
2022/12/29 10:06:35;;;;;;;1.60;1.10;;;12.10;98.20;;;;;;5015895;28;20501;-72
2022/12/29 10:09:09;;;;;;;1.60;1.10;;;12.10;98.20;;;;;;5024082;28;20484;-74
2022/12/29 10:11:56;;;;;;;1.60;1.10;;;12.10;98.20;;;;;;5016294;28;20488;-73
2022/12/29 10:14:39;;;;;;;1.60;1.10;;;12.10;98.20;;;;;;5028778;28;20462;-71
2022/12/29 10:17:17;;;;;;;1.57;1.10;;;12.10;98.20;;;;;;5010682;28;20941;-73
2022/12/29 10:20:15;;;;;;;1.60;1.10;;;12.10;98.20;;;;;;5029017;28;20462;-73
2022/12/29 10:22:57;;;;;;;1.60;1.10;;;12.10;98.20;;;;;;5003929;28;20519;-73
2022/12/29 10:25:27;;;;;;;1.57;1.03;;;12.10;98.20;;;;;;5036567;28;20486;-73
2022/12/29 10:27:57;;;;;;;1.60;1.10;;;12.00;98.20;;;;;;5000849;28;20920;-73
2022/12/29 10:30:27;;;;;;;1.57;1.10;;;12.00;98.20;;;;;;5033972;28;20466;-74
2022/12/29 10:32:57;;;;;;;1.60;1.00;;;12.00;98.20;;;;;;5001147;28;20581;-74
2022/12/29 10:35:26;;;;;;;1.60;1.10;;;12.10;98.20;;;;;;5037831;28;20461;-75
2022/12/29 10:38:04;;;;;;;1.60;1.10;;;12.10;98.20;;;;;;5002242;28;20487;-74
2022/12/29 10:40:39;;;;;;;1.60;1.10;;;12.10;98.20;;;;;;5040602;28;20660;-74
2022/12/29 10:43:20;;;;;;;1.50;1.00;;;12.10;98.20;;;;;;5019834;28;21082;-73
2022/12/29 10:45:49;;;;;;;1.57;1.10;;;12.20;98.20;;;;;;5035639;28;20897;-73
2022/12/29 10:48:22;;;;;;;1.60;1.10;;;12.30;98.20;;;;;;5011167;28;20485;-73
2022/12/29 10:50:50;;;;;;;1.57;1.10;;;12.30;98.20;;;;;;5027342;28;20553;-73
2022/12/29 10:53:22;;;;;;;1.60;1.10;;;12.30;98.20;;;;;;5010720;28;20466;-73
2022/12/29 10:55:51;;;;;;;1.60;1.10;;;12.40;98.20;;;;;;5030806;28;20556;-73
2022/12/29 10:58:19;;;;;;;1.57;1.00;;;12.40;98.20;;;;;;5014366;28;20502;-73
2022/12/29 11:00:55;;;;;;;1.60;1.10;;;12.40;98.20;;;;;;5039782;28;20466;-72
2022/12/29 11:03:59;;;;;;;1.57;1.00;;;12.50;98.20;;;;;;5012379;28;20486;-73
2022/12/29 11:06:29;;;;;;;1.60;1.10;;;12.50;98.20;;;;;;5014758;28;20894;-74
2022/12/29 11:08:59;;;;;;;1.57;1.10;;;12.50;98.20;;;;;;5023652;28;20870;-73
2022/12/29 11:11:34;;;;;;;1.57;1.07;;;12.50;98.20;;;;;;5028084;28;21270;-73
2022/12/29 11:14:12;;;;;;;1.57;1.00;;;12.60;98.20;;;;;;5042808;28;20450;-72
2022/12/29 11:16:44;;;;;;;1.60;1.10;;;12.60;98.20;;;;;;5026583;28;20576;-72
2022/12/29 11:19:30;;;;;;;1.60;1.10;;;12.70;98.20;;;;;;5033171;28;20796;-73
2022/12/29 11:22:21;;;;;;;1.53;1.00;;;12.70;98.20;;;;;;5016715;28;20483;-74
2022/12/29 11:24:49;;;;;;;1.60;1.10;;;12.80;98.20;;;;;;5035779;28;20494;-74
2022/12/29 11:27:20;;;;;;;1.60;1.10;;;12.90;98.20;;;;;;5027934;28;20483;-73
2022/12/29 11:29:48;;;;;;;1.60;1.00;;;12.90;98.20;;;;;;5039325;28;20465;-73
2022/12/29 11:32:21;;;;;;;1.53;1.10;;;13.00;98.20;;;;;;5007728;28;20564;-73
2022/12/29 11:34:48;;;;;;;1.60;1.10;;;13.00;98.20;;;;;;5036997;28;20470;-72
2022/12/29 11:37:18;;;;;;;1.60;1.20;;;13.00;98.20;;;;;;5026502;28;20497;-73
2022/12/29 11:39:52;;;;;;;1.60;1.10;;;13.00;98.20;;;;;;5037546;28;20473;-73
2022/12/29 11:42:22;;;;;;;1.60;1.10;;;13.00;98.20;;;;;;5006359;28;20780;-74
2022/12/29 11:44:51;;;;;;;1.57;1.00;;;13.00;98.20;;;;;;5037634;28;20492;-73
2022/12/29 11:47:29;;;;;;;1.60;1.10;;;12.90;98.20;;;;;;5006499;28;21017;-73
2022/12/29 11:50:00;;;;;;;1.60;1.30;;;12.90;98.20;;;;;;5037738;28;20458;-73
2022/12/29 11:52:30;;;;;;;1.57;1.00;;;12.80;98.20;;;;;;5027513;28;20571;-73
2022/12/29 11:54:59;;;;;;;1.60;1.00;;;12.90;98.20;;;;;;5036398;28;21062;-73
2022/12/29 11:57:27;;;;;;;1.60;1.10;;;12.80;98.20;;;;;;5024641;28;20494;-73
2022/12/29 11:59:55;;;;;;;1.60;1.00;;;12.80;98.20;;;;;;5035802;28;20462;-74
2022/12/29 12:02:41;;;;;;;1.60;1.07;;;12.80;98.20;;;;;;5007849;28;20582;-73
2022/12/29 12:05:19;;;;;;;1.60;1.10;;;12.70;98.20;;;;;;5035000;28;20495;-73
2022/12/29 12:07:48;;;;;;;1.60;1.20;;;12.70;98.20;;;;;;5005719;28;20531;-73
2022/12/29 12:10:22;;;;;;;1.60;1.10;;;12.60;98.20;;;;;;5038174;28;20471;-72
2022/12/29 12:12:54;;;;;;;1.57;1.00;;;12.50;98.20;;;;;;5004937;28;20578;-73
2022/12/29 12:15:26;;;;;;;1.60;1.03;;;12.50;98.20;;;;;;5036123;28;20473;-73
2022/12/29 12:18:01;;;;;;;1.53;1.03;;;12.50;98.20;;;;;;5000899;28;20495;-73
2022/12/29 12:20:36;;;;;;;1.60;1.10;;;12.50;98.20;;;;;;5037964;28;20529;-73
2022/12/29 12:23:14;;;;;;;1.60;1.10;;;12.50;98.20;;;;;;5028963;28;20474;-72
2022/12/29 12:25:46;;;;;;;1.60;1.03;;;12.50;98.20;;;;;;5034217;28;20501;-72
2022/12/29 12:28:20;;;;;;;1.60;1.10;;;12.50;98.20;;;;;;5006076;28;20479;-72
2022/12/29 12:30:50;;;;;;;1.60;1.10;;;12.50;98.20;;;;;;5034746;28;20503;-73
2022/12/29 12:33:25;;;;;;;1.53;0.90;;;12.50;98.20;;;;;;5010010;28;20487;-71
2022/12/29 12:36:09;;;;;;;1.57;1.07;;;12.40;98.20;;;;;;5024831;28;20531;-74
2022/12/29 12:38:47;;;;;;;1.53;1.07;;;12.50;98.20;;;;;;5017861;28;20482;-73
2022/12/29 12:41:20;;;;;;;1.60;1.10;;;12.40;98.20;;;;;;5024654;28;20541;-73
2022/12/29 12:43:52;;;;;;;1.60;1.00;;;12.40;98.20;;;;;;5037633;28;20539;-73
2022/12/29 12:46:49;;;;;;;1.53;1.10;;;12.40;98.20;;;;;;5019267;28;20473;-72
2022/12/29 12:49:40;;;;;;;1.57;1.10;;;12.40;98.20;;;;;;5024660;28;20565;-73
2022/12/29 12:52:16;;;;;;;1.57;1.10;;;12.40;98.20;;;;;;5008077;28;20829;-73
2022/12/29 12:55:01;;;;;;;1.60;1.13;;;12.40;98.20;;;;;;5030204;28;20495;-72
2022/12/29 12:57:40;;;;;;;1.60;1.10;;;12.40;98.20;;;;;;5022352;28;20482;-73
2022/12/29 13:00:13;;;;;;;1.57;1.10;;;12.40;98.20;;;;;;5034751;28;20475;-73
2022/12/29 13:02:55;;;;;;;1.57;1.00;;;12.40;98.20;;;;;;5025708;28;20486;-73
2022/12/29 13:05:33;;;;;;;1.60;1.10;;;12.40;98.20;;;;;;5035014;28;20489;-73
2022/12/29 13:08:16;;;;;;;1.57;1.00;;;12.40;98.20;;;;;;5000750;28;20566;-73
2022/12/29 13:10:47;;;;;;;1.53;1.00;;;12.40;98.20;;;;;;5032178;28;20979;-73
2022/12/29 13:13:30;;;;;;;1.57;1.10;;;12.40;98.20;;;;;;4998511;28;20482;-72
2022/12/29 13:16:04;;;;;;;1.60;1.10;;;12.30;98.20;;;;;;5019445;28;20463;-73
2022/12/29 13:18:38;;;;;;;1.60;1.10;;;12.30;98.20;;;;;;5016287;28;20517;-72
2022/12/29 13:21:35;;;;;;;1.53;1.10;;;12.40;98.20;;;;;;5024129;28;20466;-74
2022/12/29 13:24:13;;;;;;;1.60;1.10;;;12.40;98.20;;;;;;5018137;28;20501;-73
2022/12/29 13:26:45;;;;;;;1.60;1.03;;;12.50;98.20;;;;;;5016515;28;20486;-74
2022/12/29 13:29:19;;;;;;;1.53;1.07;;;12.60;98.20;;;;;;5022274;28;20470;-73
2022/12/29 13:31:53;;;;;;;1.57;1.03;;;12.60;98.20;;;;;;5017440;28;20502;-71
2022/12/29 13:34:30;;;;;;;1.60;1.20;;;12.60;98.10;;;;;;5021983;28;20458;-72
2022/12/29 13:37:02;;;;;;;1.53;1.10;;;12.60;98.00;;;;;;5009803;28;20482;-71
2022/12/29 13:39:34;;;;;;;1.60;1.10;;;12.60;97.80;;;;;;5026394;28;20544;-72